sensor_id;sensor_type;location;lat;lon;timestamp;P1;durP1;ratioP1;P2;durP2;ratioP2
18445;SDS011;9352;50.888;4.466;2023-03-12T00:00:39;16.30;;;7.03;;
18445;SDS011;9352;50.888;4.466;2023-03-12T00:03:07;14.48;;;6.90;;
18445;SDS011;9352;50.888;4.466;2023-03-12T00:05:35;19.67;;;6.32;;
18445;SDS011;9352;50.888;4.466;2023-03-12T00:08:03;14.02;;;5.93;;
18445;SDS011;9352;50.888;4.466;2023-03-12T00:10:32;11.48;;;5.47;;
18445;SDS011;9352;50.888;4.466;2023-03-12T00:13:00;11.85;;;5.43;;
18445;SDS011;9352;50.888;4.466;2023-03-12T00:15:27;14.13;;;5.43;;
18445;SDS011;9352;50.888;4.466;2023-03-12T00:17:54;13.82;;;5.88;;
18445;SDS011;9352;50.888;4.466;2023-03-12T00:20:21;11.73;;;5.22;;
18445;SDS011;9352;50.888;4.466;2023-03-12T00:22:48;17.48;;;5.60;;
18445;SDS011;9352;50.888;4.466;2023-03-12T00:25:15;16.13;;;5.38;;
18445;SDS011;9352;50.888;4.466;2023-03-12T00:27:43;13.43;;;5.13;;
18445;SDS011;9352;50.888;4.466;2023-03-12T00:30:11;15.57;;;5.90;;
18445;SDS011;9352;50.888;4.466;2023-03-12T00:32:38;12.15;;;5.20;;
18445;SDS011;9352;50.888;4.466;2023-03-12T00:35:05;13.65;;;5.18;;
18445;SDS011;9352;50.888;4.466;2023-03-12T00:37:33;13.88;;;5.95;;
18445;SDS011;9352;50.888;4.466;2023-03-12T00:40:01;14.50;;;5.53;;
18445;SDS011;9352;50.888;4.466;2023-03-12T00:42:29;18.65;;;6.22;;
18445;SDS011;9352;50.888;4.466;2023-03-12T00:44:58;19.30;;;6.13;;
18445;SDS011;9352;50.888;4.466;2023-03-12T00:47:25;11.00;;;5.38;;
18445;SDS011;9352;50.888;4.466;2023-03-12T00:49:52;15.38;;;5.70;;
18445;SDS011;9352;50.888;4.466;2023-03-12T00:52:19;10.82;;;5.28;;
18445;SDS011;9352;50.888;4.466;2023-03-12T00:54:45;10.55;;;4.95;;
18445;SDS011;9352;50.888;4.466;2023-03-12T00:57:12;11.60;;;4.60;;
18445;SDS011;9352;50.888;4.466;2023-03-12T00:59:39;13.87;;;5.50;;
18445;SDS011;9352;50.888;4.466;2023-03-12T01:02:08;17.98;;;4.55;;
18445;SDS011;9352;50.888;4.466;2023-03-12T01:04:35;9.97;;;4.43;;
18445;SDS011;9352;50.888;4.466;2023-03-12T01:07:02;13.13;;;4.50;;
18445;SDS011;9352;50.888;4.466;2023-03-12T01:09:29;10.57;;;4.20;;
18445;SDS011;9352;50.888;4.466;2023-03-12T01:11:56;10.07;;;3.80;;
18445;SDS011;9352;50.888;4.466;2023-03-12T01:14:23;10.10;;;4.18;;
18445;SDS011;9352;50.888;4.466;2023-03-12T01:16:50;11.82;;;4.40;;
18445;SDS011;9352;50.888;4.466;2023-03-12T01:19:18;14.45;;;3.92;;
18445;SDS011;9352;50.888;4.466;2023-03-12T01:21:45;12.43;;;4.30;;
18445;SDS011;9352;50.888;4.466;2023-03-12T01:24:12;9.63;;;3.95;;
18445;SDS011;9352;50.888;4.466;2023-03-12T01:26:39;10.00;;;4.45;;
18445;SDS011;9352;50.888;4.466;2023-03-12T01:29:06;12.68;;;4.45;;
18445;SDS011;9352;50.888;4.466;2023-03-12T01:31:33;9.50;;;4.10;;
18445;SDS011;9352;50.888;4.466;2023-03-12T01:33:59;12.27;;;3.80;;
18445;SDS011;9352;50.888;4.466;2023-03-12T01:36:28;16.48;;;5.65;;
18445;SDS011;9352;50.888;4.466;2023-03-12T01:38:58;16.55;;;6.00;;
18445;SDS011;9352;50.888;4.466;2023-03-12T01:41:26;11.52;;;4.82;;
18445;SDS011;9352;50.888;4.466;2023-03-12T01:43:56;18.58;;;5.13;;
18445;SDS011;9352;50.888;4.466;2023-03-12T01:46:25;9.83;;;3.80;;
18445;SDS011;9352;50.888;4.466;2023-03-12T01:48:55;13.15;;;4.95;;
18445;SDS011;9352;50.888;4.466;2023-03-12T01:51:29;24.02;;;6.72;;
18445;SDS011;9352;50.888;4.466;2023-03-12T01:53:59;13.15;;;4.03;;
18445;SDS011;9352;50.888;4.466;2023-03-12T01:56:31;7.70;;;3.42;;
18445;SDS011;9352;50.888;4.466;2023-03-12T01:59:01;19.50;;;6.93;;
18445;SDS011;9352;50.888;4.466;2023-03-12T02:01:32;12.20;;;5.07;;
18445;SDS011;9352;50.888;4.466;2023-03-12T02:03:59;10.25;;;3.97;;
18445;SDS011;9352;50.888;4.466;2023-03-12T02:06:29;11.18;;;4.20;;
18445;SDS011;9352;50.888;4.466;2023-03-12T02:09:02;7.00;;;3.40;;
18445;SDS011;9352;50.888;4.466;2023-03-12T02:11:33;14.93;;;5.30;;
18445;SDS011;9352;50.888;4.466;2023-03-12T02:14:00;10.77;;;4.80;;
18445;SDS011;9352;50.888;4.466;2023-03-12T02:16:27;10.60;;;3.20;;
18445;SDS011;9352;50.888;4.466;2023-03-12T02:18:54;10.67;;;3.27;;
18445;SDS011;9352;50.888;4.466;2023-03-12T02:21:26;17.43;;;3.80;;
18445;SDS011;9352;50.888;4.466;2023-03-12T02:23:59;10.27;;;3.45;;
18445;SDS011;9352;50.888;4.466;2023-03-12T02:26:32;4.72;;;3.05;;
18445;SDS011;9352;50.888;4.466;2023-03-12T02:29:02;7.50;;;2.93;;
18445;SDS011;9352;50.888;4.466;2023-03-12T02:31:30;9.43;;;3.50;;
18445;SDS011;9352;50.888;4.466;2023-03-12T02:34:01;11.33;;;3.10;;
18445;SDS011;9352;50.888;4.466;2023-03-12T02:36:28;9.07;;;2.80;;
18445;SDS011;9352;50.888;4.466;2023-03-12T02:38:55;10.73;;;3.70;;
18445;SDS011;9352;50.888;4.466;2023-03-12T02:41:23;12.65;;;4.05;;
18445;SDS011;9352;50.888;4.466;2023-03-12T02:43:56;8.57;;;3.58;;
18445;SDS011;9352;50.888;4.466;2023-03-12T02:46:26;6.30;;;3.00;;
18445;SDS011;9352;50.888;4.466;2023-03-12T02:48:57;13.13;;;3.20;;
18445;SDS011;9352;50.888;4.466;2023-03-12T02:51:25;6.90;;;2.75;;
18445;SDS011;9352;50.888;4.466;2023-03-12T02:53:52;5.93;;;2.77;;
18445;SDS011;9352;50.888;4.466;2023-03-12T02:56:20;11.52;;;3.17;;
18445;SDS011;9352;50.888;4.466;2023-03-12T02:58:48;10.57;;;3.83;;
18445;SDS011;9352;50.888;4.466;2023-03-12T03:01:16;6.10;;;2.83;;
18445;SDS011;9352;50.888;4.466;2023-03-12T03:03:44;9.37;;;3.00;;
18445;SDS011;9352;50.888;4.466;2023-03-12T03:06:12;5.97;;;2.83;;
18445;SDS011;9352;50.888;4.466;2023-03-12T03:08:39;11.52;;;3.10;;
18445;SDS011;9352;50.888;4.466;2023-03-12T03:11:06;7.33;;;2.93;;
18445;SDS011;9352;50.888;4.466;2023-03-12T03:13:33;9.55;;;2.70;;
18445;SDS011;9352;50.888;4.466;2023-03-12T03:16:01;8.43;;;2.63;;
18445;SDS011;9352;50.888;4.466;2023-03-12T03:18:29;11.77;;;3.07;;
18445;SDS011;9352;50.888;4.466;2023-03-12T03:20:57;9.47;;;3.10;;
18445;SDS011;9352;50.888;4.466;2023-03-12T03:23:25;11.25;;;2.80;;
18445;SDS011;9352;50.888;4.466;2023-03-12T03:25:52;3.23;;;2.63;;
18445;SDS011;9352;50.888;4.466;2023-03-12T03:28:20;7.37;;;2.80;;
18445;SDS011;9352;50.888;4.466;2023-03-12T03:30:48;5.23;;;2.90;;
18445;SDS011;9352;50.888;4.466;2023-03-12T03:33:17;8.00;;;2.97;;
18445;SDS011;9352;50.888;4.466;2023-03-12T03:35:46;8.00;;;3.17;;
18445;SDS011;9352;50.888;4.466;2023-03-12T03:38:13;11.63;;;2.80;;
18445;SDS011;9352;50.888;4.466;2023-03-12T03:40:40;7.17;;;3.07;;
18445;SDS011;9352;50.888;4.466;2023-03-12T03:43:07;8.63;;;3.23;;
18445;SDS011;9352;50.888;4.466;2023-03-12T03:45:34;8.07;;;3.43;;
18445;SDS011;9352;50.888;4.466;2023-03-12T03:48:01;11.07;;;3.53;;
18445;SDS011;9352;50.888;4.466;2023-03-12T03:50:27;7.30;;;3.53;;
18445;SDS011;9352;50.888;4.466;2023-03-12T03:52:56;11.70;;;3.70;;
18445;SDS011;9352;50.888;4.466;2023-03-12T03:55:22;10.40;;;4.03;;
18445;SDS011;9352;50.888;4.466;2023-03-12T03:57:49;12.85;;;4.13;;
18445;SDS011;9352;50.888;4.466;2023-03-12T04:00:16;7.77;;;3.73;;
18445;SDS011;9352;50.888;4.466;2023-03-12T04:02:44;8.95;;;4.03;;
18445;SDS011;9352;50.888;4.466;2023-03-12T04:05:11;11.37;;;3.53;;
18445;SDS011;9352;50.888;4.466;2023-03-12T04:07:39;7.83;;;3.00;;
18445;SDS011;9352;50.888;4.466;2023-03-12T04:10:09;4.67;;;3.00;;
18445;SDS011;9352;50.888;4.466;2023-03-12T04:12:36;18.07;;;5.50;;
18445;SDS011;9352;50.888;4.466;2023-03-12T04:15:04;12.35;;;4.68;;
18445;SDS011;9352;50.888;4.466;2023-03-12T04:17:31;11.50;;;3.60;;
18445;SDS011;9352;50.888;4.466;2023-03-12T04:19:58;7.20;;;3.00;;
18445;SDS011;9352;50.888;4.466;2023-03-12T04:22:25;9.55;;;3.67;;
18445;SDS011;9352;50.888;4.466;2023-03-12T04:24:52;8.63;;;3.50;;
18445;SDS011;9352;50.888;4.466;2023-03-12T04:27:21;6.30;;;3.20;;
18445;SDS011;9352;50.888;4.466;2023-03-12T04:29:47;5.53;;;3.27;;
18445;SDS011;9352;50.888;4.466;2023-03-12T04:32:14;9.30;;;3.70;;
18445;SDS011;9352;50.888;4.466;2023-03-12T04:34:41;8.00;;;3.27;;
18445;SDS011;9352;50.888;4.466;2023-03-12T04:37:08;8.50;;;3.60;;
18445;SDS011;9352;50.888;4.466;2023-03-12T04:39:37;10.40;;;3.45;;
18445;SDS011;9352;50.888;4.466;2023-03-12T04:42:05;8.00;;;4.47;;
18445;SDS011;9352;50.888;4.466;2023-03-12T04:44:34;13.70;;;4.67;;
18445;SDS011;9352;50.888;4.466;2023-03-12T04:47:01;8.48;;;4.40;;
18445;SDS011;9352;50.888;4.466;2023-03-12T04:49:28;8.05;;;4.45;;
18445;SDS011;9352;50.888;4.466;2023-03-12T04:51:55;9.93;;;3.90;;
18445;SDS011;9352;50.888;4.466;2023-03-12T04:54:22;9.02;;;3.85;;
18445;SDS011;9352;50.888;4.466;2023-03-12T04:56:49;12.37;;;4.47;;
18445;SDS011;9352;50.888;4.466;2023-03-12T04:59:16;11.20;;;3.90;;
18445;SDS011;9352;50.888;4.466;2023-03-12T05:01:44;7.77;;;4.30;;
18445;SDS011;9352;50.888;4.466;2023-03-12T05:04:11;12.27;;;4.53;;
18445;SDS011;9352;50.888;4.466;2023-03-12T05:06:38;10.57;;;4.43;;
18445;SDS011;9352;50.888;4.466;2023-03-12T05:09:05;8.02;;;4.30;;
18445;SDS011;9352;50.888;4.466;2023-03-12T05:11:32;10.70;;;4.70;;
18445;SDS011;9352;50.888;4.466;2023-03-12T05:13:59;10.33;;;4.67;;
18445;SDS011;9352;50.888;4.466;2023-03-12T05:16:26;11.07;;;4.90;;
18445;SDS011;9352;50.888;4.466;2023-03-12T05:18:55;13.27;;;4.90;;
18445;SDS011;9352;50.888;4.466;2023-03-12T05:21:22;11.25;;;4.63;;
18445;SDS011;9352;50.888;4.466;2023-03-12T05:23:49;9.15;;;4.68;;
18445;SDS011;9352;50.888;4.466;2023-03-12T05:26:17;9.82;;;4.70;;
18445;SDS011;9352;50.888;4.466;2023-03-12T05:28:46;14.90;;;5.43;;
18445;SDS011;9352;50.888;4.466;2023-03-12T05:31:13;11.57;;;5.30;;
18445;SDS011;9352;50.888;4.466;2023-03-12T05:33:40;13.07;;;5.65;;
18445;SDS011;9352;50.888;4.466;2023-03-12T05:36:09;10.10;;;5.30;;
18445;SDS011;9352;50.888;4.466;2023-03-12T05:38:36;13.25;;;5.50;;
18445;SDS011;9352;50.888;4.466;2023-03-12T05:41:04;13.30;;;5.27;;
18445;SDS011;9352;50.888;4.466;2023-03-12T05:43:31;13.13;;;5.60;;
18445;SDS011;9352;50.888;4.466;2023-03-12T05:46:00;9.73;;;5.80;;
18445;SDS011;9352;50.888;4.466;2023-03-12T05:48:28;12.85;;;5.75;;
18445;SDS011;9352;50.888;4.466;2023-03-12T05:50:55;13.20;;;6.30;;
18445;SDS011;9352;50.888;4.466;2023-03-12T05:53:23;13.20;;;6.40;;
18445;SDS011;9352;50.888;4.466;2023-03-12T05:55:50;12.93;;;6.40;;
18445;SDS011;9352;50.888;4.466;2023-03-12T05:58:17;11.70;;;6.37;;
18445;SDS011;9352;50.888;4.466;2023-03-12T06:00:44;17.15;;;6.70;;
18445;SDS011;9352;50.888;4.466;2023-03-12T06:03:11;15.07;;;7.00;;
18445;SDS011;9352;50.888;4.466;2023-03-12T06:05:38;16.10;;;6.97;;
18445;SDS011;9352;50.888;4.466;2023-03-12T06:08:05;14.93;;;7.37;;
18445;SDS011;9352;50.888;4.466;2023-03-12T06:10:33;15.35;;;7.72;;
18445;SDS011;9352;50.888;4.466;2023-03-12T06:13:04;23.88;;;8.82;;
18445;SDS011;9352;50.888;4.466;2023-03-12T06:15:31;20.05;;;8.05;;
18445;SDS011;9352;50.888;4.466;2023-03-12T06:17:58;14.85;;;8.10;;
18445;SDS011;9352;50.888;4.466;2023-03-12T06:20:25;17.33;;;8.38;;
18445;SDS011;9352;50.888;4.466;2023-03-12T06:22:52;21.27;;;9.43;;
18445;SDS011;9352;50.888;4.466;2023-03-12T06:25:19;25.83;;;10.23;;
18445;SDS011;9352;50.888;4.466;2023-03-12T06:27:47;20.48;;;9.50;;
18445;SDS011;9352;50.888;4.466;2023-03-12T06:32:41;21.70;;;9.70;;
18445;SDS011;9352;50.888;4.466;2023-03-12T06:35:08;21.52;;;10.77;;
18445;SDS011;9352;50.888;4.466;2023-03-12T06:37:35;22.23;;;10.25;;
18445;SDS011;9352;50.888;4.466;2023-03-12T06:40:02;22.50;;;10.52;;
18445;SDS011;9352;50.888;4.466;2023-03-12T06:42:32;21.75;;;10.73;;
18445;SDS011;9352;50.888;4.466;2023-03-12T06:45:00;23.42;;;10.25;;
18445;SDS011;9352;50.888;4.466;2023-03-12T06:47:27;24.63;;;10.50;;
18445;SDS011;9352;50.888;4.466;2023-03-12T06:49:54;19.67;;;9.95;;
18445;SDS011;9352;50.888;4.466;2023-03-12T06:52:21;21.80;;;10.35;;
18445;SDS011;9352;50.888;4.466;2023-03-12T06:54:51;21.60;;;9.52;;
18445;SDS011;9352;50.888;4.466;2023-03-12T06:57:18;21.67;;;10.52;;
18445;SDS011;9352;50.888;4.466;2023-03-12T06:59:45;27.00;;;10.70;;
18445;SDS011;9352;50.888;4.466;2023-03-12T07:02:13;18.80;;;9.68;;
18445;SDS011;9352;50.888;4.466;2023-03-12T07:04:40;21.00;;;10.05;;
18445;SDS011;9352;50.888;4.466;2023-03-12T07:07:07;21.63;;;10.00;;
18445;SDS011;9352;50.888;4.466;2023-03-12T07:09:36;17.67;;;9.27;;
18445;SDS011;9352;50.888;4.466;2023-03-12T07:12:03;18.50;;;9.55;;
18445;SDS011;9352;50.888;4.466;2023-03-12T07:14:30;17.98;;;9.50;;
18445;SDS011;9352;50.888;4.466;2023-03-12T07:16:57;21.48;;;10.27;;
18445;SDS011;9352;50.888;4.466;2023-03-12T07:19:27;21.83;;;10.27;;
18445;SDS011;9352;50.888;4.466;2023-03-12T07:21:54;22.17;;;10.40;;
18445;SDS011;9352;50.888;4.466;2023-03-12T07:24:22;19.85;;;10.52;;
18445;SDS011;9352;50.888;4.466;2023-03-12T07:26:49;21.83;;;10.05;;
18445;SDS011;9352;50.888;4.466;2023-03-12T07:29:16;19.73;;;11.23;;
18445;SDS011;9352;50.888;4.466;2023-03-12T07:31:42;27.30;;;10.25;;
18445;SDS011;9352;50.888;4.466;2023-03-12T07:34:09;20.65;;;9.98;;
18445;SDS011;9352;50.888;4.466;2023-03-12T07:36:38;36.50;;;11.88;;
18445;SDS011;9352;50.888;4.466;2023-03-12T07:39:05;32.78;;;11.38;;
18445;SDS011;9352;50.888;4.466;2023-03-12T07:41:33;30.73;;;11.13;;
18445;SDS011;9352;50.888;4.466;2023-03-12T07:44:01;32.97;;;11.13;;
18445;SDS011;9352;50.888;4.466;2023-03-12T07:46:28;26.70;;;10.93;;
18445;SDS011;9352;50.888;4.466;2023-03-12T07:48:55;30.60;;;11.23;;
18445;SDS011;9352;50.888;4.466;2023-03-12T07:51:22;24.02;;;10.48;;
18445;SDS011;9352;50.888;4.466;2023-03-12T07:53:50;38.33;;;11.75;;
18445;SDS011;9352;50.888;4.466;2023-03-12T07:56:17;35.33;;;11.27;;
18445;SDS011;9352;50.888;4.466;2023-03-12T07:58:44;28.55;;;10.70;;
18445;SDS011;9352;50.888;4.466;2023-03-12T08:01:11;32.60;;;11.73;;
18445;SDS011;9352;50.888;4.466;2023-03-12T08:03:38;41.03;;;11.75;;
18445;SDS011;9352;50.888;4.466;2023-03-12T08:06:05;52.63;;;12.32;;
18445;SDS011;9352;50.888;4.466;2023-03-12T08:08:32;35.03;;;13.13;;
18445;SDS011;9352;50.888;4.466;2023-03-12T08:11:02;56.13;;;13.32;;
18445;SDS011;9352;50.888;4.466;2023-03-12T08:13:29;53.17;;;13.30;;
18445;SDS011;9352;50.888;4.466;2023-03-12T08:15:56;55.80;;;12.82;;
18445;SDS011;9352;50.888;4.466;2023-03-12T08:18:23;61.85;;;14.13;;
18445;SDS011;9352;50.888;4.466;2023-03-12T08:20:51;64.35;;;13.65;;
18445;SDS011;9352;50.888;4.466;2023-03-12T08:23:19;60.47;;;13.68;;
18445;SDS011;9352;50.888;4.466;2023-03-12T08:25:47;71.95;;;13.98;;
18445;SDS011;9352;50.888;4.466;2023-03-12T08:28:16;65.18;;;13.05;;
18445;SDS011;9352;50.888;4.466;2023-03-12T08:30:45;69.70;;;14.35;;
18445;SDS011;9352;50.888;4.466;2023-03-12T08:33:13;78.68;;;14.63;;
18445;SDS011;9352;50.888;4.466;2023-03-12T08:35:40;57.03;;;12.38;;
18445;SDS011;9352;50.888;4.466;2023-03-12T08:38:07;73.25;;;12.30;;
18445;SDS011;9352;50.888;4.466;2023-03-12T08:40:34;56.10;;;12.25;;
18445;SDS011;9352;50.888;4.466;2023-03-12T08:43:01;66.45;;;11.70;;
18445;SDS011;9352;50.888;4.466;2023-03-12T08:45:30;63.67;;;12.73;;
18445;SDS011;9352;50.888;4.466;2023-03-12T08:47:57;78.75;;;12.18;;
18445;SDS011;9352;50.888;4.466;2023-03-12T08:50:24;64.22;;;11.73;;
18445;SDS011;9352;50.888;4.466;2023-03-12T08:52:53;60.47;;;10.52;;
18445;SDS011;9352;50.888;4.466;2023-03-12T08:55:20;56.92;;;10.18;;
18445;SDS011;9352;50.888;4.466;2023-03-12T08:57:47;58.38;;;11.05;;
18445;SDS011;9352;50.888;4.466;2023-03-12T09:00:14;56.83;;;11.18;;
18445;SDS011;9352;50.888;4.466;2023-03-12T09:02:43;54.72;;;9.35;;
18445;SDS011;9352;50.888;4.466;2023-03-12T09:05:11;55.33;;;9.70;;
18445;SDS011;9352;50.888;4.466;2023-03-12T09:07:38;60.28;;;9.00;;
18445;SDS011;9352;50.888;4.466;2023-03-12T09:10:05;56.72;;;9.30;;
18445;SDS011;9352;50.888;4.466;2023-03-12T09:12:33;47.47;;;8.52;;
18445;SDS011;9352;50.888;4.466;2023-03-12T09:15:00;48.40;;;8.93;;
18445;SDS011;9352;50.888;4.466;2023-03-12T09:17:27;50.58;;;8.85;;
18445;SDS011;9352;50.888;4.466;2023-03-12T09:19:55;42.22;;;7.80;;
18445;SDS011;9352;50.888;4.466;2023-03-12T09:22:22;59.08;;;8.93;;
18445;SDS011;9352;50.888;4.466;2023-03-12T09:24:49;55.00;;;8.63;;
18445;SDS011;9352;50.888;4.466;2023-03-12T09:27:16;54.35;;;8.50;;
18445;SDS011;9352;50.888;4.466;2023-03-12T09:29:43;64.93;;;9.55;;
18445;SDS011;9352;50.888;4.466;2023-03-12T09:32:10;54.28;;;8.73;;
18445;SDS011;9352;50.888;4.466;2023-03-12T09:34:40;55.40;;;8.00;;
18445;SDS011;9352;50.888;4.466;2023-03-12T09:37:08;42.72;;;7.40;;
18445;SDS011;9352;50.888;4.466;2023-03-12T09:39:35;51.20;;;7.32;;
18445;SDS011;9352;50.888;4.466;2023-03-12T09:42:02;49.78;;;6.75;;
18445;SDS011;9352;50.888;4.466;2023-03-12T09:44:32;40.00;;;6.95;;
18445;SDS011;9352;50.888;4.466;2023-03-12T09:47:02;55.25;;;7.68;;
18445;SDS011;9352;50.888;4.466;2023-03-12T09:49:37;46.35;;;7.40;;
18445;SDS011;9352;50.888;4.466;2023-03-12T09:52:07;50.80;;;7.75;;
18445;SDS011;9352;50.888;4.466;2023-03-12T09:54:43;43.28;;;6.22;;
18445;SDS011;9352;50.888;4.466;2023-03-12T09:57:23;47.42;;;6.95;;
18445;SDS011;9352;50.888;4.466;2023-03-12T09:59:51;52.78;;;7.65;;
18445;SDS011;9352;50.888;4.466;2023-03-12T10:05:18;57.03;;;7.40;;
18445;SDS011;9352;50.888;4.466;2023-03-12T10:07:56;42.25;;;7.95;;
18445;SDS011;9352;50.888;4.466;2023-03-12T10:10:34;42.92;;;6.95;;
18445;SDS011;9352;50.888;4.466;2023-03-12T10:13:16;52.65;;;7.28;;
18445;SDS011;9352;50.888;4.466;2023-03-12T10:15:57;42.67;;;7.13;;
18445;SDS011;9352;50.888;4.466;2023-03-12T10:18:37;48.25;;;6.65;;
18445;SDS011;9352;50.888;4.466;2023-03-12T10:21:21;54.00;;;6.82;;
18445;SDS011;9352;50.888;4.466;2023-03-12T10:24:00;44.28;;;6.57;;
18445;SDS011;9352;50.888;4.466;2023-03-12T10:26:48;42.67;;;6.75;;
18445;SDS011;9352;50.888;4.466;2023-03-12T10:29:16;57.63;;;6.80;;
18445;SDS011;9352;50.888;4.466;2023-03-12T10:31:51;40.70;;;6.72;;
18445;SDS011;9352;50.888;4.466;2023-03-12T10:34:22;63.95;;;7.20;;
18445;SDS011;9352;50.888;4.466;2023-03-12T10:36:56;40.97;;;5.75;;
18445;SDS011;9352;50.888;4.466;2023-03-12T10:39:27;41.70;;;6.93;;
18445;SDS011;9352;50.888;4.466;2023-03-12T10:41:54;50.40;;;6.80;;
18445;SDS011;9352;50.888;4.466;2023-03-12T10:44:22;39.15;;;7.35;;
18445;SDS011;9352;50.888;4.466;2023-03-12T10:46:58;44.38;;;7.93;;
18445;SDS011;9352;50.888;4.466;2023-03-12T10:49:32;48.67;;;6.93;;
18445;SDS011;9352;50.888;4.466;2023-03-12T10:52:02;42.88;;;7.18;;
18445;SDS011;9352;50.888;4.466;2023-03-12T10:54:33;45.28;;;6.75;;
18445;SDS011;9352;50.888;4.466;2023-03-12T10:57:01;51.97;;;7.68;;
18445;SDS011;9352;50.888;4.466;2023-03-12T10:59:30;44.42;;;6.80;;
18445;SDS011;9352;50.888;4.466;2023-03-12T11:01:59;34.08;;;6.72;;
18445;SDS011;9352;50.888;4.466;2023-03-12T11:04:28;52.60;;;8.13;;
18445;SDS011;9352;50.888;4.466;2023-03-12T11:10:03;42.15;;;6.00;;
18445;SDS011;9352;50.888;4.466;2023-03-12T11:12:39;46.72;;;6.82;;
18445;SDS011;9352;50.888;4.466;2023-03-12T11:15:19;46.63;;;7.15;;
18445;SDS011;9352;50.888;4.466;2023-03-12T11:17:48;52.10;;;7.00;;
18445;SDS011;9352;50.888;4.466;2023-03-12T11:20:24;41.83;;;6.93;;
18445;SDS011;9352;50.888;4.466;2023-03-12T11:22:52;39.50;;;7.22;;
18445;SDS011;9352;50.888;4.466;2023-03-12T11:25:21;37.92;;;6.40;;
18445;SDS011;9352;50.888;4.466;2023-03-12T11:27:51;43.28;;;7.55;;
18445;SDS011;9352;50.888;4.466;2023-03-12T11:30:21;38.08;;;6.78;;
18445;SDS011;9352;50.888;4.466;2023-03-12T11:32:51;38.40;;;7.45;;
18445;SDS011;9352;50.888;4.466;2023-03-12T11:35:20;46.03;;;6.63;;
18445;SDS011;9352;50.888;4.466;2023-03-12T11:37:54;41.03;;;7.45;;
18445;SDS011;9352;50.888;4.466;2023-03-12T11:40:31;34.55;;;6.88;;
18445;SDS011;9352;50.888;4.466;2023-03-12T11:43:34;46.55;;;7.93;;
18445;SDS011;9352;50.888;4.466;2023-03-12T11:46:18;42.65;;;7.22;;
18445;SDS011;9352;50.888;4.466;2023-03-12T11:48:55;48.17;;;8.02;;
18445;SDS011;9352;50.888;4.466;2023-03-12T11:51:34;51.30;;;8.13;;
18445;SDS011;9352;50.888;4.466;2023-03-12T11:54:19;44.13;;;6.80;;
18445;SDS011;9352;50.888;4.466;2023-03-12T11:57:13;53.75;;;7.93;;
18445;SDS011;9352;50.888;4.466;2023-03-12T11:59:53;52.55;;;7.93;;
18445;SDS011;9352;50.888;4.466;2023-03-12T12:02:38;49.40;;;8.20;;
18445;SDS011;9352;50.888;4.466;2023-03-12T12:05:20;55.90;;;8.45;;
18445;SDS011;9352;50.888;4.466;2023-03-12T12:08:05;46.47;;;7.78;;
18445;SDS011;9352;50.888;4.466;2023-03-12T12:10:44;48.67;;;8.05;;
18445;SDS011;9352;50.888;4.466;2023-03-12T12:13:20;41.92;;;6.38;;
18445;SDS011;9352;50.888;4.466;2023-03-12T12:15:56;61.72;;;7.68;;
18445;SDS011;9352;50.888;4.466;2023-03-12T12:18:41;34.03;;;6.53;;
18445;SDS011;9352;50.888;4.466;2023-03-12T12:21:30;45.95;;;7.90;;
18445;SDS011;9352;50.888;4.466;2023-03-12T12:24:10;41.75;;;6.97;;
18445;SDS011;9352;50.888;4.466;2023-03-12T12:26:43;46.85;;;7.72;;
18445;SDS011;9352;50.888;4.466;2023-03-12T12:29:19;52.15;;;6.80;;
18445;SDS011;9352;50.888;4.466;2023-03-12T12:31:52;43.20;;;6.78;;
18445;SDS011;9352;50.888;4.466;2023-03-12T12:37:26;37.05;;;6.47;;
18445;SDS011;9352;50.888;4.466;2023-03-12T12:40:11;40.75;;;7.50;;
18445;SDS011;9352;50.888;4.466;2023-03-12T12:42:52;36.38;;;6.00;;
18445;SDS011;9352;50.888;4.466;2023-03-12T12:45:25;33.03;;;6.25;;
18445;SDS011;9352;50.888;4.466;2023-03-12T12:47:55;38.53;;;6.85;;
18445;SDS011;9352;50.888;4.466;2023-03-12T12:50:26;30.00;;;5.57;;
18445;SDS011;9352;50.888;4.466;2023-03-12T12:52:58;34.20;;;5.68;;
18445;SDS011;9352;50.888;4.466;2023-03-12T12:55:34;34.70;;;6.30;;
18445;SDS011;9352;50.888;4.466;2023-03-12T12:58:07;43.85;;;6.75;;
18445;SDS011;9352;50.888;4.466;2023-03-12T13:00:45;32.33;;;6.30;;
18445;SDS011;9352;50.888;4.466;2023-03-12T13:03:15;35.47;;;6.00;;
18445;SDS011;9352;50.888;4.466;2023-03-12T13:05:46;43.20;;;5.88;;
18445;SDS011;9352;50.888;4.466;2023-03-12T13:08:31;40.67;;;6.43;;
18445;SDS011;9352;50.888;4.466;2023-03-12T13:11:22;28.90;;;5.80;;
18445;SDS011;9352;50.888;4.466;2023-03-12T13:13:53;32.80;;;6.13;;
18445;SDS011;9352;50.888;4.466;2023-03-12T13:16:46;38.28;;;5.97;;
18445;SDS011;9352;50.888;4.466;2023-03-12T13:19:25;37.53;;;5.82;;
18445;SDS011;9352;50.888;4.466;2023-03-12T13:21:58;37.28;;;6.05;;
18445;SDS011;9352;50.888;4.466;2023-03-12T13:24:33;35.67;;;6.22;;
18445;SDS011;9352;50.888;4.466;2023-03-12T13:27:09;38.58;;;6.47;;
18445;SDS011;9352;50.888;4.466;2023-03-12T13:29:43;39.58;;;6.30;;
18445;SDS011;9352;50.888;4.466;2023-03-12T13:35:06;41.20;;;6.72;;
18445;SDS011;9352;50.888;4.466;2023-03-12T13:38:03;41.80;;;6.43;;
18445;SDS011;9352;50.888;4.466;2023-03-12T13:40:36;33.15;;;6.03;;
18445;SDS011;9352;50.888;4.466;2023-03-12T13:43:08;34.35;;;5.18;;
18445;SDS011;9352;50.888;4.466;2023-03-12T13:45:39;41.47;;;5.93;;
18445;SDS011;9352;50.888;4.466;2023-03-12T13:48:21;28.33;;;5.47;;
18445;SDS011;9352;50.888;4.466;2023-03-12T13:50:50;34.17;;;6.65;;
18445;SDS011;9352;50.888;4.466;2023-03-12T13:53:19;34.40;;;6.30;;
18445;SDS011;9352;50.888;4.466;2023-03-12T13:55:49;36.03;;;5.88;;
18445;SDS011;9352;50.888;4.466;2023-03-12T13:58:26;36.47;;;5.60;;
18445;SDS011;9352;50.888;4.466;2023-03-12T14:00:55;37.67;;;6.28;;
18445;SDS011;9352;50.888;4.466;2023-03-12T14:03:28;38.42;;;5.72;;
18445;SDS011;9352;50.888;4.466;2023-03-12T14:05:58;35.83;;;5.75;;
18445;SDS011;9352;50.888;4.466;2023-03-12T14:08:37;41.47;;;5.55;;
18445;SDS011;9352;50.888;4.466;2023-03-12T14:11:22;29.02;;;5.15;;
18445;SDS011;9352;50.888;4.466;2023-03-12T14:14:14;27.58;;;5.22;;
18445;SDS011;9352;50.888;4.466;2023-03-12T14:16:53;36.90;;;5.45;;
18445;SDS011;9352;50.888;4.466;2023-03-12T14:19:24;32.22;;;4.78;;
18445;SDS011;9352;50.888;4.466;2023-03-12T14:21:52;36.25;;;5.65;;
18445;SDS011;9352;50.888;4.466;2023-03-12T14:24:22;29.13;;;5.28;;
18445;SDS011;9352;50.888;4.466;2023-03-12T14:26:52;41.20;;;6.47;;
18445;SDS011;9352;50.888;4.466;2023-03-12T14:29:22;34.80;;;4.88;;
18445;SDS011;9352;50.888;4.466;2023-03-12T14:31:53;30.70;;;4.28;;
18445;SDS011;9352;50.888;4.466;2023-03-12T14:34:25;33.30;;;5.22;;
18445;SDS011;9352;50.888;4.466;2023-03-12T14:36:57;32.97;;;5.07;;
18445;SDS011;9352;50.888;4.466;2023-03-12T14:39:31;33.97;;;4.68;;
18445;SDS011;9352;50.888;4.466;2023-03-12T14:42:00;26.83;;;5.07;;
18445;SDS011;9352;50.888;4.466;2023-03-12T14:44:30;41.92;;;5.43;;
18445;SDS011;9352;50.888;4.466;2023-03-12T14:46:59;30.20;;;5.50;;
18445;SDS011;9352;50.888;4.466;2023-03-12T14:49:29;46.95;;;5.80;;
18445;SDS011;9352;50.888;4.466;2023-03-12T14:51:57;27.98;;;5.28;;
18445;SDS011;9352;50.888;4.466;2023-03-12T14:54:25;30.65;;;5.80;;
18445;SDS011;9352;50.888;4.466;2023-03-12T14:56:53;23.27;;;4.50;;
18445;SDS011;9352;50.888;4.466;2023-03-12T14:59:21;29.40;;;4.78;;
18445;SDS011;9352;50.888;4.466;2023-03-12T15:01:51;26.42;;;4.30;;
18445;SDS011;9352;50.888;4.466;2023-03-12T15:04:24;37.60;;;5.30;;
18445;SDS011;9352;50.888;4.466;2023-03-12T15:06:53;35.50;;;5.32;;
18445;SDS011;9352;50.888;4.466;2023-03-12T15:09:24;32.78;;;5.50;;
18445;SDS011;9352;50.888;4.466;2023-03-12T15:11:53;26.98;;;5.00;;
18445;SDS011;9352;50.888;4.466;2023-03-12T15:14:22;26.35;;;5.43;;
18445;SDS011;9352;50.888;4.466;2023-03-12T15:16:51;34.30;;;5.40;;
18445;SDS011;9352;50.888;4.466;2023-03-12T15:19:19;33.25;;;4.70;;